Victory — WDB9496 — position and weather

sailwx.info

Track history (hours):
 
Tides and Currents Weather Stations Pressure Air Temp Water Temp Dewpoint Dewpoint Depression Visibility Wind Speed Wind Dir Waves Ship Positions

Victory

Owner: XENIOS, GEORGE, WILMINGTON, CA. More information available from US FCC via Universal Licensing System and Coast Guard Vessel Documentation Center.

Last reported at 2018-Jan-08 20:33 UTC. Time now 2018-Feb-20 01:22 UTC.
Position N 33°34' W 118°09'.
Warning: this ship's position is 42 days out of date.

Type: Passenger vessel. MMSI: 366977270.

Date/timePositionNaut miles runAvg speedWind from/ knotsBaromVisibWave heightAir tempDewpointWater temp
2018-Jan-08 20:33N 33°34' W 118°09'0 0.0
2018-Jan-08 20:25N 33°34' W 118°09'0 0.2
2018-Jan-08 19:47N 33°34' W 118°09'  
2018-Jan-03 23:46N 33°42' W 118°15'2 9.3
2018-Jan-03 23:30N 33°40' W 118°13'2 3.3
2018-Jan-03 23:00N 33°39' W 118°12'1 1.1
2018-Jan-03 22:29N 33°39' W 118°12'0 0.3
2018-Jan-03 21:33N 33°39' W 118°11'0 0.0
2018-Jan-03 21:29N 33°39' W 118°11'0 0.0
2018-Jan-03 21:00N 33°39' W 118°11'1 0.3
2018-Jan-03 18:38N 33°38' W 118°10'0 0.0
2018-Jan-03 18:30N 33°38' W 118°10'5 3.1
2018-Jan-03 17:02N 33°41' W 118°15'1 3.1
2018-Jan-03 16:46N 33°41' W 118°15'0 0.4
2018-Jan-03 16:30N 33°41' W 118°15'0 0.0
2018-Jan-03 15:50N 33°41' W 118°15'1 0.1
2018-Jan-02 23:13N 33°42' W 118°15'3 6.3
2018-Jan-02 22:46N 33°40' W 118°13'5 2.6
2018-Jan-02 20:57N 33°36' W 118°09'2 3.1
2018-Jan-02 20:25N 33°34' W 118°09'0 0.0
2018-Jan-02 19:58N 33°34' W 118°09'2 4.7
2018-Jan-02 19:30N 33°36' W 118°10'2 3.7
2018-Jan-02 19:00N 33°38' W 118°10'1 1.4
2018-Jan-02 18:28N 33°38' W 118°10'1 1.1
2018-Jan-02 17:52N 33°39' W 118°10'0 0.0
2018-Jan-02 17:28N 33°39' W 118°10'8 0.2
2018-Jan-01 00:23N 33°46' W 118°13'7 1.7
2017-Dec-31 20:13N 33°40' W 118°17'0 0.6
2017-Dec-31 19:41N 33°39' W 118°16'1 0.5
2017-Dec-31 18:20N 33°39' W 118°16'2 0.1
2017-Dec-30 21:53N 33°40' W 118°13'0 0.8
2017-Dec-30 21:18N 33°39' W 118°13'1 1.7
2017-Dec-30 20:57N 33°39' W 118°14'2 4.1
2017-Dec-30 20:26N 33°39' W 118°16'0 0.0
2017-Dec-30 19:56N 33°39' W 118°16'3 0.1
2017-Dec-29 23:15N 33°41' W 118°17'1 3.8
2017-Dec-29 22:59N 33°40' W 118°17'1 1.3
2017-Dec-29 22:30N 33°40' W 118°17'  
Track history (hours):
 
Tides and Currents Weather Stations Pressure Air Temp Water Temp Dewpoint Dewpoint Depression Visibility Wind Speed Wind Dir Waves Ship Positions

Victory

Owner: XENIOS, GEORGE, WILMINGTON, CA. More information available from US FCC via Universal Licensing System and Coast Guard Vessel Documentation Center.

Last reported at 2018-Jan-08 20:33 UTC. Time now 2018-Feb-20 01:22 UTC.
Position N 33°34' W 118°09'.
Warning: this ship's position is 42 days out of date.

Type: Passenger vessel. MMSI: 366977270.

Date/timePositionNaut miles runAvg speedWind from/ knotsBaromVisibWave heightAir tempDewpointWater temp
2018-Jan-08 20:33N 33°34' W 118°09'0 0.0
2018-Jan-08 20:25N 33°34' W 118°09'0 0.2
2018-Jan-08 19:47N 33°34' W 118°09'  
2018-Jan-03 23:46N 33°42' W 118°15'2 9.3
2018-Jan-03 23:30N 33°40' W 118°13'2 3.3
2018-Jan-03 23:00N 33°39' W 118°12'1 1.1
2018-Jan-03 22:29N 33°39' W 118°12'0 0.3
2018-Jan-03 21:33N 33°39' W 118°11'0 0.0
2018-Jan-03 21:29N 33°39' W 118°11'0 0.0
2018-Jan-03 21:00N 33°39' W 118°11'1 0.3
2018-Jan-03 18:38N 33°38' W 118°10'0 0.0
2018-Jan-03 18:30N 33°38' W 118°10'5 3.1
2018-Jan-03 17:02N 33°41' W 118°15'1 3.1
2018-Jan-03 16:46N 33°41' W 118°15'0 0.4
2018-Jan-03 16:30N 33°41' W 118°15'0 0.0
2018-Jan-03 15:50N 33°41' W 118°15'1 0.1
2018-Jan-02 23:13N 33°42' W 118°15'3 6.3
2018-Jan-02 22:46N 33°40' W 118°13'5 2.6
2018-Jan-02 20:57N 33°36' W 118°09'2 3.1
2018-Jan-02 20:25N 33°34' W 118°09'0 0.0
2018-Jan-02 19:58N 33°34' W 118°09'2 4.7
2018-Jan-02 19:30N 33°36' W 118°10'2 3.7
2018-Jan-02 19:00N 33°38' W 118°10'1 1.4
2018-Jan-02 18:28N 33°38' W 118°10'1 1.1
2018-Jan-02 17:52N 33°39' W 118°10'0 0.0
2018-Jan-02 17:28N 33°39' W 118°10'8 0.2
2018-Jan-01 00:23N 33°46' W 118°13'7 1.7
2017-Dec-31 20:13N 33°40' W 118°17'0 0.6
2017-Dec-31 19:41N 33°39' W 118°16'1 0.5
2017-Dec-31 18:20N 33°39' W 118°16'2 0.1
2017-Dec-30 21:53N 33°40' W 118°13'0 0.8
2017-Dec-30 21:18N 33°39' W 118°13'1 1.7
2017-Dec-30 20:57N 33°39' W 118°14'2 4.1
2017-Dec-30 20:26N 33°39' W 118°16'0 0.0
2017-Dec-30 19:56N 33°39' W 118°16'3 0.1
2017-Dec-29 23:15N 33°41' W 118°17'1 3.8
2017-Dec-29 22:59N 33°40' W 118°17'1 1.3
2017-Dec-29 22:30N 33°40' W 118°17'  

Dump ship's entire track history